sensor_id;sensor_type;location;lat;lon;timestamp;P1;durP1;ratioP1;P2;durP2;ratioP2
23676;SDS011;31493;49.058;12.190;2022-12-26T00:01:37;10.02;;;5.93;;
23676;SDS011;31493;49.058;12.190;2022-12-26T00:04:06;10.30;;;5.88;;
23676;SDS011;31493;49.058;12.190;2022-12-26T00:06:35;9.85;;;6.57;;
23676;SDS011;31493;49.058;12.190;2022-12-26T00:09:03;9.68;;;6.13;;
23676;SDS011;31493;49.058;12.190;2022-12-26T00:11:33;9.13;;;6.43;;
23676;SDS011;31493;49.058;12.190;2022-12-26T00:14:01;10.13;;;6.28;;
23676;SDS011;31493;49.058;12.190;2022-12-26T00:16:31;10.57;;;6.35;;
23676;SDS011;31493;49.058;12.190;2022-12-26T00:18:58;10.60;;;6.97;;
23676;SDS011;31493;49.058;12.190;2022-12-26T00:21:26;11.40;;;6.45;;
23676;SDS011;31493;49.058;12.190;2022-12-26T00:23:55;10.18;;;6.80;;
23676;SDS011;31493;49.058;12.190;2022-12-26T00:26:25;10.35;;;6.25;;
23676;SDS011;31493;49.058;12.190;2022-12-26T00:28:53;9.23;;;6.50;;
23676;SDS011;31493;49.058;12.190;2022-12-26T00:31:23;8.95;;;6.50;;
23676;SDS011;31493;49.058;12.190;2022-12-26T00:33:52;9.48;;;6.10;;
23676;SDS011;31493;49.058;12.190;2022-12-26T00:36:20;7.97;;;6.28;;
23676;SDS011;31493;49.058;12.190;2022-12-26T00:38:48;8.98;;;6.43;;
23676;SDS011;31493;49.058;12.190;2022-12-26T00:41:18;8.23;;;6.05;;
23676;SDS011;31493;49.058;12.190;2022-12-26T00:43:46;7.88;;;5.90;;
23676;SDS011;31493;49.058;12.190;2022-12-26T00:46:14;12.15;;;6.10;;
23676;SDS011;31493;49.058;12.190;2022-12-26T00:48:41;7.80;;;5.70;;
23676;SDS011;31493;49.058;12.190;2022-12-26T00:51:09;7.28;;;5.43;;
23676;SDS011;31493;49.058;12.190;2022-12-26T00:53:36;8.43;;;6.47;;
23676;SDS011;31493;49.058;12.190;2022-12-26T00:56:04;8.77;;;6.28;;
23676;SDS011;31493;49.058;12.190;2022-12-26T00:58:32;8.05;;;5.78;;
23676;SDS011;31493;49.058;12.190;2022-12-26T01:01:06;8.50;;;6.30;;
23676;SDS011;31493;49.058;12.190;2022-12-26T01:03:36;9.65;;;6.07;;
23676;SDS011;31493;49.058;12.190;2022-12-26T01:06:03;9.90;;;5.90;;
23676;SDS011;31493;49.058;12.190;2022-12-26T01:08:30;8.25;;;5.47;;
23676;SDS011;31493;49.058;12.190;2022-12-26T01:11:01;8.23;;;5.53;;
23676;SDS011;31493;49.058;12.190;2022-12-26T01:13:29;7.57;;;5.30;;
23676;SDS011;31493;49.058;12.190;2022-12-26T01:15:57;7.20;;;5.28;;
23676;SDS011;31493;49.058;12.190;2022-12-26T01:18:24;8.90;;;5.70;;
23676;SDS011;31493;49.058;12.190;2022-12-26T01:20:56;7.20;;;5.53;;
23676;SDS011;31493;49.058;12.190;2022-12-26T01:23:24;10.50;;;5.93;;
23676;SDS011;31493;49.058;12.190;2022-12-26T01:25:51;8.10;;;5.53;;
23676;SDS011;31493;49.058;12.190;2022-12-26T01:28:18;7.93;;;5.05;;
23676;SDS011;31493;49.058;12.190;2022-12-26T01:30:45;8.63;;;5.03;;
23676;SDS011;31493;49.058;12.190;2022-12-26T01:33:14;8.30;;;5.78;;
23676;SDS011;31493;49.058;12.190;2022-12-26T01:35:47;8.52;;;5.80;;
23676;SDS011;31493;49.058;12.190;2022-12-26T01:38:15;7.97;;;5.20;;
23676;SDS011;31493;49.058;12.190;2022-12-26T01:40:43;8.45;;;5.45;;
23676;SDS011;31493;49.058;12.190;2022-12-26T01:43:11;6.93;;;5.28;;
23676;SDS011;31493;49.058;12.190;2022-12-26T01:45:39;6.82;;;4.93;;
23676;SDS011;31493;49.058;12.190;2022-12-26T01:48:12;8.77;;;5.43;;
23676;SDS011;31493;49.058;12.190;2022-12-26T01:50:46;8.98;;;5.50;;
23676;SDS011;31493;49.058;12.190;2022-12-26T01:53:21;8.27;;;4.85;;
23676;SDS011;31493;49.058;12.190;2022-12-26T01:55:54;7.57;;;5.18;;
23676;SDS011;31493;49.058;12.190;2022-12-26T01:58:28;11.38;;;4.95;;
23676;SDS011;31493;49.058;12.190;2022-12-26T02:00:59;7.85;;;5.20;;
23676;SDS011;31493;49.058;12.190;2022-12-26T02:03:29;8.60;;;5.75;;
23676;SDS011;31493;49.058;12.190;2022-12-26T02:06:14;7.35;;;5.43;;
23676;SDS011;31493;49.058;12.190;2022-12-26T02:08:42;8.10;;;5.22;;
23676;SDS011;31493;49.058;12.190;2022-12-26T02:11:12;11.00;;;5.68;;
23676;SDS011;31493;49.058;12.190;2022-12-26T02:13:43;8.63;;;5.75;;
23676;SDS011;31493;49.058;12.190;2022-12-26T02:16:11;8.13;;;5.50;;
23676;SDS011;31493;49.058;12.190;2022-12-26T02:18:41;9.38;;;5.35;;
23676;SDS011;31493;49.058;12.190;2022-12-26T02:21:21;7.28;;;5.70;;
23676;SDS011;31493;49.058;12.190;2022-12-26T02:24:16;10.60;;;5.22;;
23676;SDS011;31493;49.058;12.190;2022-12-26T02:27:23;7.43;;;5.38;;
23676;SDS011;31493;49.058;12.190;2022-12-26T02:33:12;6.72;;;5.20;;
23676;SDS011;31493;49.058;12.190;2022-12-26T02:36:00;7.55;;;5.43;;
23676;SDS011;31493;49.058;12.190;2022-12-26T02:39:02;6.57;;;5.00;;
23676;SDS011;31493;49.058;12.190;2022-12-26T02:41:41;11.15;;;4.70;;
23676;SDS011;31493;49.058;12.190;2022-12-26T02:44:19;9.85;;;5.30;;
23676;SDS011;31493;49.058;12.190;2022-12-26T02:47:09;6.55;;;4.90;;
23676;SDS011;31493;49.058;12.190;2022-12-26T02:49:42;6.97;;;4.82;;
23676;SDS011;31493;49.058;12.190;2022-12-26T02:52:43;11.82;;;5.55;;
23676;SDS011;31493;49.058;12.190;2022-12-26T02:55:37;8.52;;;5.07;;
23676;SDS011;31493;49.058;12.190;2022-12-26T02:58:26;9.63;;;5.38;;
23676;SDS011;31493;49.058;12.190;2022-12-26T03:01:16;7.47;;;5.53;;
23676;SDS011;31493;49.058;12.190;2022-12-26T03:04:07;8.90;;;5.57;;
23676;SDS011;31493;49.058;12.190;2022-12-26T03:06:57;8.25;;;5.43;;
23676;SDS011;31493;49.058;12.190;2022-12-26T03:09:44;7.32;;;5.05;;
23676;SDS011;31493;49.058;12.190;2022-12-26T03:12:33;8.80;;;5.35;;
23676;SDS011;31493;49.058;12.190;2022-12-26T03:15:22;7.22;;;5.10;;
23676;SDS011;31493;49.058;12.190;2022-12-26T03:17:53;6.97;;;3.63;;
23676;SDS011;31493;49.058;12.190;2022-12-26T03:20:22;9.48;;;5.35;;
23676;SDS011;31493;49.058;12.190;2022-12-26T03:22:54;8.43;;;6.10;;
23676;SDS011;31493;49.058;12.190;2022-12-26T03:25:26;8.40;;;5.07;;
23676;SDS011;31493;49.058;12.190;2022-12-26T03:28:24;10.85;;;5.55;;
23676;SDS011;31493;49.058;12.190;2022-12-26T03:30:52;7.68;;;5.70;;
23676;SDS011;31493;49.058;12.190;2022-12-26T03:33:22;7.60;;;5.35;;
23676;SDS011;31493;49.058;12.190;2022-12-26T03:36:10;9.68;;;6.20;;
23676;SDS011;31493;49.058;12.190;2022-12-26T03:38:42;9.90;;;5.80;;
23676;SDS011;31493;49.058;12.190;2022-12-26T03:41:21;7.60;;;5.97;;
23676;SDS011;31493;49.058;12.190;2022-12-26T03:44:15;8.00;;;5.10;;
23676;SDS011;31493;49.058;12.190;2022-12-26T03:47:10;8.00;;;5.80;;
23676;SDS011;31493;49.058;12.190;2022-12-26T03:50:05;9.75;;;5.53;;
23676;SDS011;31493;49.058;12.190;2022-12-26T03:52:59;7.05;;;4.57;;
23676;SDS011;31493;49.058;12.190;2022-12-26T03:55:51;8.70;;;5.38;;
23676;SDS011;31493;49.058;12.190;2022-12-26T03:58:44;10.23;;;6.25;;
23676;SDS011;31493;49.058;12.190;2022-12-26T04:01:32;8.02;;;5.22;;
23676;SDS011;31493;49.058;12.190;2022-12-26T04:04:20;9.67;;;6.07;;
23676;SDS011;31493;49.058;12.190;2022-12-26T04:07:09;11.60;;;5.60;;
23676;SDS011;31493;49.058;12.190;2022-12-26T04:10:00;5.53;;;3.45;;
23676;SDS011;31493;49.058;12.190;2022-12-26T04:12:49;5.72;;;3.88;;
23676;SDS011;31493;49.058;12.190;2022-12-26T04:15:38;8.30;;;5.60;;
23676;SDS011;31493;49.058;12.190;2022-12-26T04:18:27;10.27;;;5.47;;
23676;SDS011;31493;49.058;12.190;2022-12-26T04:21:20;8.20;;;4.43;;
23676;SDS011;31493;49.058;12.190;2022-12-26T04:24:11;10.32;;;5.97;;
23676;SDS011;31493;49.058;12.190;2022-12-26T04:27:02;8.85;;;5.45;;
23676;SDS011;31493;49.058;12.190;2022-12-26T04:29:52;9.05;;;5.00;;
23676;SDS011;31493;49.058;12.190;2022-12-26T04:32:38;7.90;;;5.38;;
23676;SDS011;31493;49.058;12.190;2022-12-26T04:35:26;8.30;;;4.90;;
23676;SDS011;31493;49.058;12.190;2022-12-26T04:38:15;6.07;;;4.45;;
23676;SDS011;31493;49.058;12.190;2022-12-26T04:41:06;7.15;;;5.10;;
23676;SDS011;31493;49.058;12.190;2022-12-26T04:43:53;7.18;;;5.10;;
23676;SDS011;31493;49.058;12.190;2022-12-26T04:46:29;7.32;;;5.57;;
23676;SDS011;31493;49.058;12.190;2022-12-26T04:48:58;7.18;;;5.35;;
23676;SDS011;31493;49.058;12.190;2022-12-26T04:51:46;9.00;;;3.92;;
23676;SDS011;31493;49.058;12.190;2022-12-26T04:54:14;7.45;;;5.75;;
23676;SDS011;31493;49.058;12.190;2022-12-26T04:56:41;7.30;;;4.95;;
23676;SDS011;31493;49.058;12.190;2022-12-26T04:59:08;8.10;;;4.88;;
23676;SDS011;31493;49.058;12.190;2022-12-26T05:01:36;10.65;;;5.68;;
23676;SDS011;31493;49.058;12.190;2022-12-26T05:04:21;8.27;;;5.28;;
23676;SDS011;31493;49.058;12.190;2022-12-26T05:07:09;6.78;;;5.03;;
23676;SDS011;31493;49.058;12.190;2022-12-26T05:09:58;9.25;;;5.68;;
23676;SDS011;31493;49.058;12.190;2022-12-26T05:12:25;7.88;;;4.88;;
23676;SDS011;31493;49.058;12.190;2022-12-26T05:14:52;8.52;;;4.60;;
23676;SDS011;31493;49.058;12.190;2022-12-26T05:17:21;5.50;;;3.70;;
23676;SDS011;31493;49.058;12.190;2022-12-26T05:20:06;8.85;;;5.18;;
23676;SDS011;31493;49.058;12.190;2022-12-26T05:22:54;7.78;;;4.93;;
23676;SDS011;31493;49.058;12.190;2022-12-26T05:25:40;7.07;;;4.55;;
23676;SDS011;31493;49.058;12.190;2022-12-26T05:28:26;7.95;;;4.80;;
23676;SDS011;31493;49.058;12.190;2022-12-26T05:31:09;7.72;;;5.00;;
23676;SDS011;31493;49.058;12.190;2022-12-26T05:33:38;4.22;;;3.00;;
23676;SDS011;31493;49.058;12.190;2022-12-26T05:36:23;7.10;;;4.72;;
23676;SDS011;31493;49.058;12.190;2022-12-26T05:38:52;6.85;;;3.95;;
23676;SDS011;31493;49.058;12.190;2022-12-26T05:41:20;8.23;;;4.93;;
23676;SDS011;31493;49.058;12.190;2022-12-26T05:43:48;6.18;;;4.20;;
23676;SDS011;31493;49.058;12.190;2022-12-26T05:46:15;8.57;;;4.75;;
23676;SDS011;31493;49.058;12.190;2022-12-26T05:48:43;8.85;;;4.53;;
23676;SDS011;31493;49.058;12.190;2022-12-26T05:51:10;5.97;;;3.70;;
23676;SDS011;31493;49.058;12.190;2022-12-26T05:53:37;5.97;;;3.55;;
23676;SDS011;31493;49.058;12.190;2022-12-26T05:56:05;8.52;;;5.30;;
23676;SDS011;31493;49.058;12.190;2022-12-26T06:01:04;4.97;;;3.60;;
23676;SDS011;31493;49.058;12.190;2022-12-26T06:03:33;5.63;;;2.92;;
23676;SDS011;31493;49.058;12.190;2022-12-26T06:06:01;7.07;;;4.80;;
23676;SDS011;31493;49.058;12.190;2022-12-26T06:08:28;8.40;;;4.30;;
23676;SDS011;31493;49.058;12.190;2022-12-26T06:10:55;5.63;;;4.50;;
23676;SDS011;31493;49.058;12.190;2022-12-26T06:13:22;6.07;;;4.40;;
23676;SDS011;31493;49.058;12.190;2022-12-26T06:15:50;6.25;;;4.05;;
23676;SDS011;31493;49.058;12.190;2022-12-26T06:18:17;5.95;;;4.25;;
23676;SDS011;31493;49.058;12.190;2022-12-26T06:20:44;5.88;;;4.13;;
23676;SDS011;31493;49.058;12.190;2022-12-26T06:23:12;5.47;;;3.63;;
23676;SDS011;31493;49.058;12.190;2022-12-26T06:25:39;8.85;;;3.75;;
23676;SDS011;31493;49.058;12.190;2022-12-26T06:28:06;6.50;;;4.28;;
23676;SDS011;31493;49.058;12.190;2022-12-26T06:30:33;5.82;;;4.20;;
23676;SDS011;31493;49.058;12.190;2022-12-26T06:33:00;6.13;;;3.85;;
23676;SDS011;31493;49.058;12.190;2022-12-26T06:35:27;6.07;;;4.50;;
23676;SDS011;31493;49.058;12.190;2022-12-26T06:37:54;5.63;;;3.63;;
23676;SDS011;31493;49.058;12.190;2022-12-26T06:40:23;4.15;;;2.72;;
23676;SDS011;31493;49.058;12.190;2022-12-26T06:42:50;6.10;;;4.53;;
23676;SDS011;31493;49.058;12.190;2022-12-26T06:45:17;5.63;;;3.60;;
23676;SDS011;31493;49.058;12.190;2022-12-26T06:47:44;5.70;;;4.35;;
23676;SDS011;31493;49.058;12.190;2022-12-26T06:50:11;6.25;;;4.22;;
23676;SDS011;31493;49.058;12.190;2022-12-26T06:52:38;8.30;;;4.82;;
23676;SDS011;31493;49.058;12.190;2022-12-26T06:55:06;6.22;;;4.18;;
23676;SDS011;31493;49.058;12.190;2022-12-26T06:57:34;6.65;;;4.50;;
23676;SDS011;31493;49.058;12.190;2022-12-26T07:00:02;6.40;;;4.65;;
23676;SDS011;31493;49.058;12.190;2022-12-26T07:02:30;10.38;;;4.75;;
23676;SDS011;31493;49.058;12.190;2022-12-26T07:04:57;5.53;;;4.35;;
23676;SDS011;31493;49.058;12.190;2022-12-26T07:07:24;6.38;;;4.47;;
23676;SDS011;31493;49.058;12.190;2022-12-26T07:09:51;6.20;;;4.20;;
23676;SDS011;31493;49.058;12.190;2022-12-26T07:12:18;9.48;;;4.30;;
23676;SDS011;31493;49.058;12.190;2022-12-26T07:14:47;7.97;;;4.80;;
23676;SDS011;31493;49.058;12.190;2022-12-26T07:17:14;10.07;;;5.50;;
23676;SDS011;31493;49.058;12.190;2022-12-26T07:19:41;7.25;;;4.90;;
23676;SDS011;31493;49.058;12.190;2022-12-26T07:22:08;8.10;;;4.78;;
23676;SDS011;31493;49.058;12.190;2022-12-26T07:24:35;8.00;;;4.88;;
23676;SDS011;31493;49.058;12.190;2022-12-26T07:27:02;8.82;;;4.80;;
23676;SDS011;31493;49.058;12.190;2022-12-26T07:29:29;8.65;;;4.70;;
23676;SDS011;31493;49.058;12.190;2022-12-26T07:31:58;6.80;;;4.57;;
23676;SDS011;31493;49.058;12.190;2022-12-26T07:34:25;8.98;;;5.13;;
23676;SDS011;31493;49.058;12.190;2022-12-26T07:36:52;6.22;;;3.28;;
23676;SDS011;31493;49.058;12.190;2022-12-26T07:39:20;6.32;;;4.28;;
23676;SDS011;31493;49.058;12.190;2022-12-26T07:41:47;7.82;;;5.05;;
23676;SDS011;31493;49.058;12.190;2022-12-26T07:44:23;6.00;;;4.30;;
23676;SDS011;31493;49.058;12.190;2022-12-26T07:46:50;7.68;;;4.80;;
23676;SDS011;31493;49.058;12.190;2022-12-26T07:49:18;8.00;;;4.80;;
23676;SDS011;31493;49.058;12.190;2022-12-26T07:51:45;5.35;;;4.07;;
23676;SDS011;31493;49.058;12.190;2022-12-26T07:54:13;7.15;;;4.80;;
23676;SDS011;31493;49.058;12.190;2022-12-26T07:56:40;8.60;;;4.53;;
23676;SDS011;31493;49.058;12.190;2022-12-26T07:59:10;6.20;;;4.70;;
23676;SDS011;31493;49.058;12.190;2022-12-26T08:01:39;8.75;;;4.40;;
23676;SDS011;31493;49.058;12.190;2022-12-26T08:04:06;10.75;;;4.30;;
23676;SDS011;31493;49.058;12.190;2022-12-26T08:06:34;4.30;;;3.13;;
23676;SDS011;31493;49.058;12.190;2022-12-26T08:09:01;4.40;;;3.30;;
23676;SDS011;31493;49.058;12.190;2022-12-26T08:11:30;5.80;;;4.18;;
23676;SDS011;31493;49.058;12.190;2022-12-26T08:13:58;6.78;;;3.83;;
23676;SDS011;31493;49.058;12.190;2022-12-26T08:16:26;8.02;;;4.20;;
23676;SDS011;31493;49.058;12.190;2022-12-26T08:18:53;7.35;;;4.43;;
23676;SDS011;31493;49.058;12.190;2022-12-26T08:21:20;12.02;;;5.00;;
23676;SDS011;31493;49.058;12.190;2022-12-26T08:23:49;7.65;;;4.90;;
23676;SDS011;31493;49.058;12.190;2022-12-26T08:26:16;6.57;;;4.00;;
23676;SDS011;31493;49.058;12.190;2022-12-26T08:28:47;4.88;;;3.38;;
23676;SDS011;31493;49.058;12.190;2022-12-26T08:31:16;7.10;;;4.37;;
23676;SDS011;31493;49.058;12.190;2022-12-26T08:33:44;8.80;;;4.90;;
23676;SDS011;31493;49.058;12.190;2022-12-26T08:36:12;7.32;;;4.45;;
23676;SDS011;31493;49.058;12.190;2022-12-26T08:38:41;6.53;;;4.75;;
23676;SDS011;31493;49.058;12.190;2022-12-26T08:41:09;6.43;;;4.38;;
23676;SDS011;31493;49.058;12.190;2022-12-26T08:43:36;5.70;;;4.55;;
23676;SDS011;31493;49.058;12.190;2022-12-26T08:46:04;5.18;;;3.83;;
23676;SDS011;31493;49.058;12.190;2022-12-26T08:48:35;7.00;;;4.68;;
23676;SDS011;31493;49.058;12.190;2022-12-26T08:51:04;6.32;;;3.80;;
23676;SDS011;31493;49.058;12.190;2022-12-26T08:53:33;6.95;;;4.38;;
23676;SDS011;31493;49.058;12.190;2022-12-26T08:56:02;6.05;;;4.55;;
23676;SDS011;31493;49.058;12.190;2022-12-26T08:58:32;4.80;;;3.65;;
23676;SDS011;31493;49.058;12.190;2022-12-26T09:01:06;5.30;;;3.83;;
23676;SDS011;31493;49.058;12.190;2022-12-26T09:03:34;6.38;;;4.10;;
23676;SDS011;31493;49.058;12.190;2022-12-26T09:06:01;4.97;;;3.92;;
23676;SDS011;31493;49.058;12.190;2022-12-26T09:08:29;7.53;;;3.65;;
23676;SDS011;31493;49.058;12.190;2022-12-26T09:11:00;4.70;;;3.42;;
23676;SDS011;31493;49.058;12.190;2022-12-26T09:13:28;5.78;;;3.95;;
23676;SDS011;31493;49.058;12.190;2022-12-26T09:16:02;5.90;;;4.00;;
23676;SDS011;31493;49.058;12.190;2022-12-26T09:18:34;5.93;;;3.92;;
23676;SDS011;31493;49.058;12.190;2022-12-26T09:21:01;5.13;;;3.38;;
23676;SDS011;31493;49.058;12.190;2022-12-26T09:23:29;6.53;;;3.88;;
23676;SDS011;31493;49.058;12.190;2022-12-26T09:26:01;4.30;;;3.50;;
23676;SDS011;31493;49.058;12.190;2022-12-26T09:28:30;4.57;;;3.00;;
23676;SDS011;31493;49.058;12.190;2022-12-26T09:30:58;4.13;;;2.85;;
23676;SDS011;31493;49.058;12.190;2022-12-26T09:33:27;5.30;;;3.30;;
23676;SDS011;31493;49.058;12.190;2022-12-26T09:35:55;6.10;;;3.28;;
23676;SDS011;31493;49.058;12.190;2022-12-26T09:38:22;3.53;;;2.80;;
23676;SDS011;31493;49.058;12.190;2022-12-26T09:40:52;5.40;;;3.10;;
23676;SDS011;31493;49.058;12.190;2022-12-26T09:43:31;5.03;;;3.40;;
23676;SDS011;31493;49.058;12.190;2022-12-26T09:46:15;4.93;;;2.67;;
23676;SDS011;31493;49.058;12.190;2022-12-26T09:48:50;5.40;;;2.65;;
23676;SDS011;31493;49.058;12.190;2022-12-26T09:51:22;7.32;;;3.10;;
23676;SDS011;31493;49.058;12.190;2022-12-26T09:53:51;7.70;;;4.05;;
23676;SDS011;31493;49.058;12.190;2022-12-26T09:56:20;5.72;;;3.88;;
23676;SDS011;31493;49.058;12.190;2022-12-26T09:58:51;7.72;;;4.55;;
23676;SDS011;31493;49.058;12.190;2022-12-26T10:01:21;6.60;;;4.50;;
23676;SDS011;31493;49.058;12.190;2022-12-26T10:03:54;6.82;;;4.32;;
23676;SDS011;31493;49.058;12.190;2022-12-26T10:06:22;5.93;;;4.20;;
23676;SDS011;31493;49.058;12.190;2022-12-26T10:08:58;7.80;;;4.50;;
23676;SDS011;31493;49.058;12.190;2022-12-26T10:11:37;6.47;;;4.22;;
23676;SDS011;31493;49.058;12.190;2022-12-26T10:14:17;7.55;;;4.20;;
23676;SDS011;31493;49.058;12.190;2022-12-26T10:16:52;6.47;;;4.43;;
23676;SDS011;31493;49.058;12.190;2022-12-26T10:19:28;6.45;;;4.80;;
23676;SDS011;31493;49.058;12.190;2022-12-26T10:22:04;4.82;;;3.95;;
23676;SDS011;31493;49.058;12.190;2022-12-26T10:24:41;7.68;;;3.95;;
23676;SDS011;31493;49.058;12.190;2022-12-26T10:27:09;5.80;;;4.10;;
23676;SDS011;31493;49.058;12.190;2022-12-26T10:29:40;6.97;;;4.72;;
23676;SDS011;31493;49.058;12.190;2022-12-26T10:32:12;5.07;;;3.08;;
23676;SDS011;31493;49.058;12.190;2022-12-26T10:34:46;9.18;;;5.43;;
23676;SDS011;31493;49.058;12.190;2022-12-26T10:37:15;5.95;;;4.30;;
23676;SDS011;31493;49.058;12.190;2022-12-26T10:39:50;6.53;;;4.63;;
23676;SDS011;31493;49.058;12.190;2022-12-26T10:42:22;5.50;;;3.55;;
23676;SDS011;31493;49.058;12.190;2022-12-26T10:44:53;7.40;;;4.47;;
23676;SDS011;31493;49.058;12.190;2022-12-26T10:47:21;7.88;;;4.75;;
23676;SDS011;31493;49.058;12.190;2022-12-26T10:49:52;8.15;;;5.32;;
23676;SDS011;31493;49.058;12.190;2022-12-26T10:52:26;8.93;;;5.22;;
23676;SDS011;31493;49.058;12.190;2022-12-26T10:54:58;7.80;;;5.32;;
23676;SDS011;31493;49.058;12.190;2022-12-26T10:57:27;7.43;;;5.32;;
23676;SDS011;31493;49.058;12.190;2022-12-26T10:59:56;9.25;;;5.35;;
23676;SDS011;31493;49.058;12.190;2022-12-26T11:02:25;9.57;;;5.80;;
23676;SDS011;31493;49.058;12.190;2022-12-26T11:04:58;10.27;;;6.03;;
23676;SDS011;31493;49.058;12.190;2022-12-26T11:07:28;7.18;;;5.72;;
23676;SDS011;31493;49.058;12.190;2022-12-26T11:09:58;8.13;;;5.55;;
23676;SDS011;31493;49.058;12.190;2022-12-26T11:12:28;11.23;;;5.82;;
23676;SDS011;31493;49.058;12.190;2022-12-26T11:15:02;9.05;;;5.90;;
23676;SDS011;31493;49.058;12.190;2022-12-26T11:17:33;13.48;;;6.55;;
23676;SDS011;31493;49.058;12.190;2022-12-26T11:20:17;7.80;;;5.22;;
23676;SDS011;31493;49.058;12.190;2022-12-26T11:22:49;9.95;;;6.43;;
23676;SDS011;31493;49.058;12.190;2022-12-26T11:25:18;10.95;;;5.00;;
23676;SDS011;31493;49.058;12.190;2022-12-26T11:27:48;7.20;;;5.15;;
23676;SDS011;31493;49.058;12.190;2022-12-26T11:32:49;9.43;;;6.72;;
23676;SDS011;31493;49.058;12.190;2022-12-26T11:35:29;11.38;;;6.20;;
23676;SDS011;31493;49.058;12.190;2022-12-26T11:38:02;8.18;;;5.00;;
23676;SDS011;31493;49.058;12.190;2022-12-26T11:40:32;9.35;;;6.20;;
23676;SDS011;31493;49.058;12.190;2022-12-26T11:43:02;11.00;;;6.65;;
23676;SDS011;31493;49.058;12.190;2022-12-26T11:45:35;11.18;;;7.05;;
23676;SDS011;31493;49.058;12.190;2022-12-26T11:48:07;10.88;;;5.65;;
23676;SDS011;31493;49.058;12.190;2022-12-26T11:50:46;15.25;;;7.80;;
23676;SDS011;31493;49.058;12.190;2022-12-26T11:53:14;14.50;;;8.40;;
23676;SDS011;31493;49.058;12.190;2022-12-26T11:55:43;12.10;;;7.68;;
23676;SDS011;31493;49.058;12.190;2022-12-26T11:58:17;13.23;;;7.82;;
23676;SDS011;31493;49.058;12.190;2022-12-26T12:03:33;13.95;;;8.68;;
23676;SDS011;31493;49.058;12.190;2022-12-26T12:06:07;11.60;;;8.85;;
23676;SDS011;31493;49.058;12.190;2022-12-26T12:08:48;11.23;;;7.57;;
23676;SDS011;31493;49.058;12.190;2022-12-26T12:11:29;19.63;;;8.68;;
23676;SDS011;31493;49.058;12.190;2022-12-26T12:14:13;14.23;;;8.35;;
23676;SDS011;31493;49.058;12.190;2022-12-26T12:16:55;15.10;;;9.15;;
23676;SDS011;31493;49.058;12.190;2022-12-26T12:19:34;15.50;;;8.75;;
23676;SDS011;31493;49.058;12.190;2022-12-26T12:22:13;13.10;;;9.07;;
23676;SDS011;31493;49.058;12.190;2022-12-26T12:25:12;14.20;;;8.55;;
23676;SDS011;31493;49.058;12.190;2022-12-26T12:27:49;12.38;;;7.88;;
23676;SDS011;31493;49.058;12.190;2022-12-26T12:30:26;14.00;;;8.57;;
23676;SDS011;31493;49.058;12.190;2022-12-26T12:33:10;16.95;;;10.35;;
23676;SDS011;31493;49.058;12.190;2022-12-26T12:35:53;101.43;;;12.43;;
23676;SDS011;31493;49.058;12.190;2022-12-26T12:41:07;13.13;;;8.65;;
23676;SDS011;31493;49.058;12.190;2022-12-26T12:43:45;13.88;;;9.00;;
23676;SDS011;31493;49.058;12.190;2022-12-26T12:46:21;12.05;;;7.68;;
23676;SDS011;31493;49.058;12.190;2022-12-26T12:48:59;15.07;;;9.23;;
23676;SDS011;31493;49.058;12.190;2022-12-26T12:51:47;12.27;;;8.40;;
23676;SDS011;31493;49.058;12.190;2022-12-26T12:57:23;22.55;;;11.07;;
23676;SDS011;31493;49.058;12.190;2022-12-26T13:00:00;49.03;;;10.98;;
23676;SDS011;31493;49.058;12.190;2022-12-26T13:02:37;18.95;;;9.95;;
23676;SDS011;31493;49.058;12.190;2022-12-26T13:05:12;16.35;;;9.13;;
23676;SDS011;31493;49.058;12.190;2022-12-26T13:07:44;12.27;;;7.75;;
23676;SDS011;31493;49.058;12.190;2022-12-26T13:10:17;12.63;;;7.63;;
23676;SDS011;31493;49.058;12.190;2022-12-26T13:12:48;11.40;;;7.32;;
23676;SDS011;31493;49.058;12.190;2022-12-26T13:15:20;14.30;;;7.65;;
23676;SDS011;31493;49.058;12.190;2022-12-26T13:17:56;12.80;;;6.78;;
23676;SDS011;31493;49.058;12.190;2022-12-26T13:20:29;8.25;;;5.82;;
23676;SDS011;31493;49.058;12.190;2022-12-26T13:23:03;11.77;;;6.05;;
23676;SDS011;31493;49.058;12.190;2022-12-26T13:25:56;14.48;;;7.05;;
23676;SDS011;31493;49.058;12.190;2022-12-26T13:28:33;9.13;;;5.95;;
23676;SDS011;31493;49.058;12.190;2022-12-26T13:31:05;6.65;;;4.97;;
23676;SDS011;31493;49.058;12.190;2022-12-26T13:33:32;13.05;;;5.38;;
23676;SDS011;31493;49.058;12.190;2022-12-26T13:36:01;7.10;;;4.50;;
23676;SDS011;31493;49.058;12.190;2022-12-26T13:41:45;8.35;;;4.90;;
23676;SDS011;31493;49.058;12.190;2022-12-26T13:44:33;8.00;;;5.03;;
23676;SDS011;31493;49.058;12.190;2022-12-26T13:47:00;9.55;;;6.40;;
23676;SDS011;31493;49.058;12.190;2022-12-26T13:49:31;9.30;;;6.82;;
23676;SDS011;31493;49.058;12.190;2022-12-26T13:58:05;11.45;;;7.82;;
23676;SDS011;31493;49.058;12.190;2022-12-26T14:00:46;10.07;;;7.22;;
23676;SDS011;31493;49.058;12.190;2022-12-26T14:03:18;11.05;;;8.00;;
23676;SDS011;31493;49.058;12.190;2022-12-26T14:06:11;11.90;;;7.60;;
23676;SDS011;31493;49.058;12.190;2022-12-26T14:08:51;12.82;;;8.00;;
23676;SDS011;31493;49.058;12.190;2022-12-26T14:11:34;12.30;;;6.85;;
23676;SDS011;31493;49.058;12.190;2022-12-26T14:14:15;12.00;;;7.95;;
23676;SDS011;31493;49.058;12.190;2022-12-26T14:16:53;15.80;;;8.10;;
23676;SDS011;31493;49.058;12.190;2022-12-26T14:19:32;13.75;;;8.82;;
23676;SDS011;31493;49.058;12.190;2022-12-26T14:22:10;13.30;;;7.50;;
23676;SDS011;31493;49.058;12.190;2022-12-26T14:24:47;14.40;;;9.77;;
23676;SDS011;31493;49.058;12.190;2022-12-26T14:27:27;12.60;;;8.35;;
23676;SDS011;31493;49.058;12.190;2022-12-26T14:30:18;14.20;;;8.77;;
23676;SDS011;31493;49.058;12.190;2022-12-26T14:32:59;12.93;;;8.32;;
23676;SDS011;31493;49.058;12.190;2022-12-26T14:35:39;13.73;;;9.15;;
23676;SDS011;31493;49.058;12.190;2022-12-26T14:38:22;16.80;;;9.82;;
23676;SDS011;31493;49.058;12.190;2022-12-26T14:40:59;18.02;;;9.93;;
23676;SDS011;31493;49.058;12.190;2022-12-26T14:43:38;15.40;;;9.68;;
23676;SDS011;31493;49.058;12.190;2022-12-26T14:46:52;14.95;;;9.38;;
23676;SDS011;31493;49.058;12.190;2022-12-26T14:49:36;15.65;;;9.50;;
23676;SDS011;31493;49.058;12.190;2022-12-26T14:52:30;12.82;;;8.95;;
23676;SDS011;31493;49.058;12.190;2022-12-26T14:58:23;10.98;;;8.20;;
23676;SDS011;31493;49.058;12.190;2022-12-26T15:00:54;13.82;;;8.15;;
23676;SDS011;31493;49.058;12.190;2022-12-26T15:15:31;8.40;;;5.22;;
23676;SDS011;31493;49.058;12.190;2022-12-26T15:18:05;15.82;;;8.50;;
23676;SDS011;31493;49.058;12.190;2022-12-26T15:20:54;12.52;;;7.90;;
23676;SDS011;31493;49.058;12.190;2022-12-26T15:23:48;12.90;;;7.75;;
23676;SDS011;31493;49.058;12.190;2022-12-26T15:26:48;14.02;;;8.02;;
23676;SDS011;31493;49.058;12.190;2022-12-26T15:29:41;12.27;;;8.52;;
23676;SDS011;31493;49.058;12.190;2022-12-26T15:32:32;11.43;;;7.60;;
23676;SDS011;31493;49.058;12.190;2022-12-26T15:35:10;12.80;;;8.02;;
23676;SDS011;31493;49.058;12.190;2022-12-26T15:37:52;12.27;;;8.80;;
23676;SDS011;31493;49.058;12.190;2022-12-26T15:40:29;11.70;;;7.80;;
23676;SDS011;31493;49.058;12.190;2022-12-26T15:43:04;13.10;;;8.05;;
23676;SDS011;31493;49.058;12.190;2022-12-26T15:45:49;14.50;;;7.22;;
23676;SDS011;31493;49.058;12.190;2022-12-26T15:48:28;10.43;;;7.63;;
23676;SDS011;31493;49.058;12.190;2022-12-26T15:51:03;12.73;;;8.98;;
23676;SDS011;31493;49.058;12.190;2022-12-26T15:53:39;15.82;;;9.45;;
23676;SDS011;31493;49.058;12.190;2022-12-26T15:59:44;13.43;;;8.80;;